createdAt,value
2017-07-23T00:00:08.560Z,19.40
2017-07-23T00:02:35.229Z,19.50
2017-07-23T00:08:19.430Z,19.50
2017-07-23T00:10:45.364Z,19.50
2017-07-23T00:13:12.045Z,19.30
2017-07-23T00:15:37.982Z,19.30
2017-07-23T00:18:03.913Z,19.40
2017-07-23T00:20:29.858Z,19.50
2017-07-23T00:22:55.806Z,19.30
2017-07-23T00:25:21.745Z,19.30
2017-07-23T00:27:48.400Z,19.20
2017-07-23T00:30:14.301Z,19.20
2017-07-23T00:32:40.225Z,19.20
2017-07-23T00:35:06.162Z,19.30
2017-07-23T00:37:32.109Z,19.40
2017-07-23T00:39:58.781Z,19.50
2017-07-23T00:42:24.681Z,19.50
2017-07-23T00:44:51.405Z,19.30
2017-07-23T00:47:17.365Z,19.30
2017-07-23T00:49:44.065Z,19.20
2017-07-23T00:52:09.977Z,19.30
2017-07-23T00:54:35.934Z,19.30
2017-07-23T00:57:01.853Z,19.40
2017-07-23T00:59:31.892Z,19.40
2017-07-23T01:01:57.887Z,19.30
2017-07-23T01:04:23.847Z,19.30
2017-07-23T01:06:49.761Z,19.30
2017-07-23T01:09:15.768Z,19.40
2017-07-23T01:11:41.700Z,19.50
2017-07-23T01:14:07.625Z,19.40
2017-07-23T01:16:33.548Z,19.40
2017-07-23T01:18:59.477Z,19.30
2017-07-23T01:21:25.398Z,19.20
2017-07-23T01:23:51.326Z,19.20
2017-07-23T01:26:17.297Z,19.20
2017-07-23T01:28:43.949Z,19.40
2017-07-23T01:31:09.881Z,19.40
2017-07-23T01:33:36.551Z,19.50
2017-07-23T01:36:02.505Z,19.50
2017-07-23T01:38:28.430Z,19.60
2017-07-23T01:40:54.374Z,19.80
2017-07-23T01:43:20.406Z,19.90
2017-07-23T01:45:46.340Z,19.90
2017-07-23T01:48:12.279Z,19.70
2017-07-23T01:50:38.989Z,19.90
2017-07-23T01:53:04.902Z,19.90
2017-07-23T01:55:30.830Z,20.10
2017-07-23T01:57:56.773Z,20.00
2017-07-23T02:00:22.703Z,20.00
2017-07-23T02:02:48.694Z,19.90
2017-07-23T02:05:14.646Z,19.80
2017-07-23T02:07:40.608Z,19.60
2017-07-23T02:10:20.758Z,19.40
2017-07-23T02:12:47.462Z,19.10
2017-07-23T02:15:13.387Z,19.10
2017-07-23T02:17:39.314Z,19.10
2017-07-23T02:20:05.238Z,19.10
2017-07-23T02:22:31.153Z,19.20
2017-07-23T02:24:57.061Z,19.30
2017-07-23T02:27:22.975Z,19.30
2017-07-23T02:29:49.617Z,19.00
2017-07-23T02:32:15.537Z,19.00
2017-07-23T02:34:42.245Z,19.30
2017-07-23T02:37:08.178Z,19.30
2017-07-23T02:39:34.122Z,19.20
2017-07-23T02:42:00.102Z,19.10
2017-07-23T02:44:26.017Z,19.10
2017-07-23T02:46:51.931Z,19.20
2017-07-23T02:49:18.625Z,19.20
2017-07-23T02:51:44.572Z,19.20
2017-07-23T02:54:10.476Z,19.20
2017-07-23T02:56:36.422Z,19.20
2017-07-23T02:59:02.357Z,19.10
2017-07-23T03:01:28.286Z,19.00
2017-07-23T03:03:54.234Z,19.20
2017-07-23T03:06:20.906Z,19.10
2017-07-23T03:08:46.817Z,19.00
2017-07-23T03:11:13.472Z,18.90
2017-07-23T03:13:40.125Z,18.80
2017-07-23T03:16:06.049Z,18.80
2017-07-23T03:18:31.962Z,18.80
2017-07-23T03:20:58.609Z,18.70
2017-07-23T03:23:24.541Z,18.60
2017-07-23T03:25:50.484Z,18.80
2017-07-23T03:28:16.373Z,18.70
2017-07-23T03:30:43.030Z,18.70
2017-07-23T03:33:08.954Z,18.60
2017-07-23T03:35:35.598Z,18.70
2017-07-23T03:38:01.564Z,18.70
2017-07-23T03:40:27.520Z,18.70
2017-07-23T03:42:53.481Z,18.70
2017-07-23T03:45:20.135Z,18.90
2017-07-23T03:47:46.105Z,18.90
2017-07-23T03:50:12.052Z,18.90
2017-07-23T03:52:37.986Z,18.80
2017-07-23T03:55:03.953Z,18.80
2017-07-23T03:57:29.924Z,19.00
2017-07-23T03:59:55.837Z,19.00
2017-07-23T04:02:21.741Z,18.90
2017-07-23T04:04:47.681Z,19.00
2017-07-23T04:07:13.586Z,18.90
2017-07-23T04:09:39.521Z,18.90
2017-07-23T04:12:05.422Z,19.10
2017-07-23T04:14:32.092Z,19.30
2017-07-23T04:16:58.001Z,19.30
2017-07-23T04:19:23.930Z,19.40
2017-07-23T04:21:49.886Z,19.40
2017-07-23T04:24:15.818Z,19.50
2017-07-23T04:26:41.757Z,19.30
2017-07-23T04:29:07.674Z,19.40
2017-07-23T04:31:33.608Z,19.70
2017-07-23T04:33:59.567Z,19.80
2017-07-23T04:36:25.511Z,19.80
2017-07-23T04:38:52.206Z,19.80
2017-07-23T04:41:18.125Z,19.80
2017-07-23T04:43:44.050Z,19.80
2017-07-23T04:46:09.969Z,19.70
2017-07-23T04:48:35.893Z,19.70
2017-07-23T04:51:01.821Z,19.50
2017-07-23T04:53:27.753Z,19.10
2017-07-23T04:55:53.693Z,18.90
2017-07-23T04:58:19.610Z,18.90
2017-07-23T05:00:45.545Z,18.90
2017-07-23T05:03:11.493Z,18.90
2017-07-23T05:05:37.425Z,18.90
2017-07-23T05:08:03.365Z,18.90
2017-07-23T05:10:29.308Z,18.80
2017-07-23T05:12:55.982Z,18.80
2017-07-23T05:15:21.923Z,18.80
2017-07-23T05:17:47.876Z,19.00
2017-07-23T05:20:13.809Z,19.00
2017-07-23T05:22:39.733Z,19.00
2017-07-23T05:25:05.659Z,19.00
2017-07-23T05:27:31.574Z,19.00
2017-07-23T05:29:57.514Z,19.10
2017-07-23T05:32:23.449Z,19.10
2017-07-23T05:34:49.402Z,19.20
2017-07-23T05:37:16.116Z,19.20
2017-07-23T05:39:42.054Z,19.20
2017-07-23T05:42:08.733Z,19.20
2017-07-23T05:44:34.690Z,19.20
2017-07-23T05:47:00.623Z,19.20
2017-07-23T05:49:26.565Z,19.10
2017-07-23T05:51:52.493Z,19.20
2017-07-23T05:54:18.413Z,19.20
2017-07-23T05:56:44.363Z,19.20
2017-07-23T05:59:11.041Z,19.30
2017-07-23T06:01:36.964Z,19.30
2017-07-23T06:04:02.891Z,19.40
2017-07-23T06:06:29.545Z,19.40
2017-07-23T06:08:55.473Z,19.40
2017-07-23T06:11:21.411Z,19.40
2017-07-23T06:13:47.345Z,19.50
2017-07-23T06:16:13.278Z,19.60
2017-07-23T06:18:39.202Z,19.60
2017-07-23T06:21:05.109Z,19.60
2017-07-23T06:23:31.020Z,19.90
2017-07-23T06:25:56.948Z,19.90
2017-07-23T06:28:22.871Z,19.80
2017-07-23T06:30:49.579Z,20.10
2017-07-23T06:33:15.572Z,20.10
2017-07-23T06:35:41.537Z,20.30
2017-07-23T06:38:07.462Z,20.40
2017-07-23T06:40:33.393Z,20.50
2017-07-23T06:42:59.322Z,20.50
2017-07-23T06:45:25.246Z,20.70
2017-07-23T06:47:51.161Z,20.80
2017-07-23T06:50:17.098Z,20.70
2017-07-23T06:52:43.019Z,20.70
2017-07-23T06:55:09.002Z,21.00
2017-07-23T06:57:34.946Z,21.20
2017-07-23T07:00:00.861Z,21.00
2017-07-23T07:02:26.842Z,20.80
2017-07-23T07:04:52.926Z,20.60
2017-07-23T07:07:18.862Z,20.50
2017-07-23T07:09:48.517Z,20.70
2017-07-23T07:12:14.553Z,20.80
2017-07-23T07:14:40.466Z,20.80
2017-07-23T07:17:06.422Z,20.70
2017-07-23T07:19:33.083Z,20.70
2017-07-23T07:21:59.013Z,20.70
2017-07-23T07:24:24.934Z,20.70
2017-07-23T07:26:50.892Z,20.70
2017-07-23T07:29:16.819Z,20.60
2017-07-23T07:31:42.755Z,20.70
2017-07-23T07:34:08.670Z,20.70
2017-07-23T07:36:34.624Z,20.70
2017-07-23T07:39:00.655Z,20.60
2017-07-23T07:41:26.593Z,20.50
2017-07-23T07:43:52.533Z,20.40
2017-07-23T07:46:19.214Z,20.40
2017-07-23T07:48:45.128Z,20.40
2017-07-23T07:51:11.057Z,20.50
2017-07-23T07:53:44.253Z,20.60
2017-07-23T07:56:10.193Z,20.60
2017-07-23T07:58:55.150Z,20.70
2017-07-23T08:01:21.124Z,20.80
2017-07-23T08:03:47.059Z,20.60
2017-07-23T08:06:13.738Z,20.70
2017-07-23T08:08:46.509Z,20.70
2017-07-23T08:11:13.217Z,20.70
2017-07-23T08:13:39.250Z,20.70
2017-07-23T08:16:05.325Z,20.70
2017-07-23T08:18:31.254Z,20.70
2017-07-23T08:20:57.185Z,20.70
2017-07-23T08:23:23.105Z,20.70
2017-07-23T08:25:49.012Z,20.70
2017-07-23T08:28:15.688Z,20.70
2017-07-23T08:30:41.614Z,20.70
2017-07-23T08:33:07.565Z,20.80
2017-07-23T08:35:33.681Z,21.20
2017-07-23T08:37:59.669Z,21.30
2017-07-23T08:40:26.339Z,21.40
2017-07-23T08:42:52.257Z,21.30
2017-07-23T08:45:18.194Z,21.50
2017-07-23T08:47:44.122Z,21.70
2017-07-23T08:50:10.062Z,21.40
2017-07-23T08:52:35.987Z,21.50
2017-07-23T08:55:01.950Z,21.40
2017-07-23T08:57:27.874Z,21.40
2017-07-23T08:59:53.777Z,21.60
2017-07-23T09:02:19.733Z,21.60
2017-07-23T09:04:45.657Z,21.60
2017-07-23T09:07:11.586Z,21.70
2017-07-23T09:09:37.490Z,21.70
2017-07-23T09:12:03.410Z,21.60
2017-07-23T09:14:29.317Z,21.60
2017-07-23T09:16:55.247Z,21.70
2017-07-23T09:19:21.165Z,21.40
2017-07-23T09:21:47.096Z,21.30
2017-07-23T09:24:13.018Z,21.20
2017-07-23T09:26:38.931Z,21.50
2017-07-23T09:29:05.632Z,22.10
2017-07-23T09:31:31.585Z,22.10
2017-07-23T09:33:57.497Z,22.20
2017-07-23T09:36:23.419Z,22.30
2017-07-23T09:38:49.350Z,22.40
2017-07-23T09:41:15.273Z,22.50
2017-07-23T09:43:41.182Z,22.60
2017-07-23T09:46:07.168Z,22.60
2017-07-23T09:48:33.077Z,22.60
2017-07-23T09:50:59.781Z,22.30
2017-07-23T09:53:25.707Z,22.20
2017-07-23T09:55:51.612Z,22.30
2017-07-23T09:58:17.522Z,22.40
2017-07-23T10:00:43.476Z,22.20
2017-07-23T10:03:09.405Z,22.10
2017-07-23T10:05:35.330Z,22.00
2017-07-23T10:08:01.302Z,22.20
2017-07-23T10:10:27.221Z,22.50
2017-07-23T10:12:53.457Z,22.40
2017-07-23T10:15:19.507Z,22.20
2017-07-23T10:17:46.433Z,22.40
2017-07-23T10:20:12.442Z,22.50
2017-07-23T10:22:38.444Z,22.70
2017-07-23T10:25:04.426Z,23.00
2017-07-23T10:27:30.478Z,23.10
2017-07-23T10:29:58.222Z,23.10
2017-07-23T10:32:24.146Z,23.10
2017-07-23T10:34:50.102Z,23.10
2017-07-23T10:37:17.826Z,23.20
2017-07-23T10:39:43.825Z,23.20
2017-07-23T10:42:09.749Z,23.20
2017-07-23T10:44:35.688Z,23.30
2017-07-23T10:47:01.625Z,23.50
2017-07-23T10:49:27.702Z,23.70
2017-07-23T10:51:53.632Z,24.10
2017-07-23T10:54:19.574Z,24.10
2017-07-23T10:56:45.502Z,23.90
2017-07-23T10:59:15.635Z,24.00
2017-07-23T11:01:41.594Z,24.00
2017-07-23T11:04:07.539Z,23.70
2017-07-23T11:06:33.510Z,23.90
2017-07-23T11:09:05.635Z,23.90
2017-07-23T11:11:56.837Z,23.80
2017-07-23T11:14:24.948Z,23.80
2017-07-23T11:16:54.794Z,24.30
2017-07-23T11:19:20.845Z,24.20
2017-07-23T11:21:51.486Z,24.00
2017-07-23T11:24:23.743Z,24.10
2017-07-23T11:26:49.680Z,24.20
2017-07-23T11:29:19.622Z,24.40
2017-07-23T11:31:48.850Z,24.50
2017-07-23T11:34:15.541Z,24.70
2017-07-23T11:36:41.561Z,24.80
2017-07-23T11:39:07.488Z,24.60
2017-07-23T11:41:40.957Z,24.70
2017-07-23T11:44:06.902Z,24.80
2017-07-23T11:46:39.457Z,24.60
2017-07-23T11:49:16.936Z,24.60
2017-07-23T11:51:47.317Z,24.50
2017-07-23T11:54:13.242Z,24.50
2017-07-23T11:56:39.181Z,24.30
2017-07-23T11:59:05.117Z,24.10
2017-07-23T12:01:37.673Z,23.90
2017-07-23T12:04:03.625Z,24.00
2017-07-23T12:06:30.664Z,24.30
2017-07-23T12:08:56.738Z,24.50
2017-07-23T12:11:24.501Z,24.00
2017-07-23T12:13:59.267Z,23.80
2017-07-23T12:16:30.729Z,23.80
2017-07-23T12:19:14.978Z,24.00
2017-07-23T12:21:47.518Z,24.10
2017-07-23T12:24:30.889Z,24.40
2017-07-23T12:26:58.908Z,24.50
2017-07-23T12:29:38.589Z,24.30
2017-07-23T12:32:08.069Z,24.30
2017-07-23T12:34:39.365Z,24.60
2017-07-23T12:37:05.329Z,24.90
2017-07-23T12:39:41.924Z,25.20
2017-07-23T12:42:12.434Z,24.90
2017-07-23T12:44:41.121Z,24.70
2017-07-23T12:47:14.130Z,24.70
2017-07-23T12:49:53.467Z,24.50
2017-07-23T12:52:29.927Z,24.50
2017-07-23T12:55:08.375Z,24.90
2017-07-23T12:57:54.701Z,24.90
2017-07-23T13:00:22.689Z,25.60
2017-07-23T13:02:49.630Z,25.90
2017-07-23T13:05:15.671Z,25.70
2017-07-23T13:07:41.689Z,25.60
2017-07-23T13:10:07.730Z,25.70
2017-07-23T13:12:34.465Z,26.10
2017-07-23T13:15:14.765Z,26.10
2017-07-23T13:18:03.148Z,25.70
2017-07-23T13:20:30.925Z,25.40
2017-07-23T13:22:56.960Z,25.10
2017-07-23T13:25:22.995Z,25.20
2017-07-23T13:28:00.653Z,25.40
2017-07-23T13:30:51.060Z,25.70
2017-07-23T13:33:17.120Z,25.70
2017-07-23T13:35:48.781Z,25.60
2017-07-23T13:38:20.113Z,24.90
2017-07-23T13:40:46.042Z,24.90
2017-07-23T13:43:18.762Z,24.80
2017-07-23T13:46:02.258Z,24.80
2017-07-23T13:48:36.631Z,25.00
2017-07-23T13:51:08.965Z,24.90
2017-07-23T13:53:40.177Z,25.10
2017-07-23T13:56:06.111Z,25.10
2017-07-23T13:58:38.831Z,24.90
2017-07-23T14:01:13.251Z,24.90
2017-07-23T14:03:49.728Z,25.00
2017-07-23T14:06:19.285Z,24.90
2017-07-23T14:08:53.529Z,25.30
2017-07-23T14:11:21.489Z,25.40
2017-07-23T14:13:52.249Z,24.90
2017-07-23T14:16:18.931Z,24.60
2017-07-23T14:18:50.058Z,24.60
2017-07-23T14:21:20.369Z,24.40
2017-07-23T14:23:46.423Z,24.60
2017-07-23T14:26:17.982Z,24.70
2017-07-23T14:28:54.418Z,24.90
2017-07-23T14:34:27.429Z,25.20
2017-07-23T14:36:55.372Z,25.20
2017-07-23T14:39:22.114Z,25.50
2017-07-23T14:41:59.418Z,25.90
2017-07-23T14:44:25.351Z,25.90
2017-07-23T14:46:58.161Z,26.00
2017-07-23T14:49:26.165Z,26.30
2017-07-23T14:52:09.553Z,26.20
2017-07-23T14:54:41.066Z,26.00
2017-07-23T14:57:13.259Z,25.10
2017-07-23T14:59:41.212Z,25.10
2017-07-23T15:02:17.808Z,24.80
2017-07-23T15:04:51.219Z,24.60
2017-07-23T15:07:23.610Z,24.70
2017-07-23T15:10:10.661Z,24.80
2017-07-23T15:12:37.338Z,24.40
2017-07-23T15:15:20.656Z,24.30
2017-07-23T15:17:46.585Z,24.20
2017-07-23T15:20:12.546Z,24.10
2017-07-23T15:22:38.489Z,24.20
2017-07-23T15:25:07.817Z,24.00
2017-07-23T15:27:34.465Z,24.10
2017-07-23T15:30:01.138Z,23.90
2017-07-23T15:32:27.060Z,23.80
2017-07-23T15:34:53.018Z,24.10
2017-07-23T15:37:18.957Z,24.00
2017-07-23T15:39:44.899Z,24.00
2017-07-23T15:42:13.919Z,23.70
2017-07-23T15:44:40.596Z,23.80
2017-07-23T15:47:06.550Z,23.80
2017-07-23T15:49:32.498Z,24.00
2017-07-23T15:51:58.437Z,23.70
2017-07-23T15:54:24.395Z,24.10
2017-07-23T15:56:50.385Z,24.30
2017-07-23T15:59:17.060Z,24.50
2017-07-23T16:01:42.982Z,24.50
2017-07-23T16:04:08.905Z,24.60
2017-07-23T16:06:36.558Z,24.90
2017-07-23T16:09:05.237Z,24.80
2017-07-23T16:11:31.158Z,24.80
2017-07-23T16:13:57.088Z,24.90
2017-07-23T16:16:23.022Z,24.90
2017-07-23T16:18:50.789Z,24.70
2017-07-23T16:21:17.493Z,24.70
2017-07-23T16:23:43.505Z,24.60
2017-07-23T16:26:09.462Z,24.70
2017-07-23T16:28:35.409Z,24.70
2017-07-23T16:31:01.366Z,24.60
2017-07-23T16:33:28.105Z,24.50
2017-07-23T16:36:06.014Z,25.10
2017-07-23T16:38:39.430Z,26.10
2017-07-23T16:41:05.358Z,26.10
2017-07-23T16:43:31.270Z,27.20
2017-07-23T16:46:00.464Z,28.10
2017-07-23T16:48:36.776Z,28.90
2017-07-23T16:54:09.957Z,30.20
2017-07-23T16:56:35.907Z,30.30
2017-07-23T16:59:01.825Z,29.80
2017-07-23T17:01:47.969Z,29.60
2017-07-23T17:04:18.564Z,29.60
2017-07-23T17:06:44.495Z,29.60
2017-07-23T17:09:10.429Z,30.30
2017-07-23T17:11:37.385Z,30.70
2017-07-23T17:14:03.342Z,30.80
2017-07-23T17:16:32.997Z,31.80
2017-07-23T17:19:16.423Z,31.70
2017-07-23T17:21:42.394Z,32.10
2017-07-23T17:24:10.101Z,33.00
2017-07-23T17:26:38.137Z,32.90
2017-07-23T17:29:04.861Z,32.90
2017-07-23T17:31:34.308Z,32.90
2017-07-23T17:34:02.317Z,33.10
2017-07-23T17:36:28.262Z,32.90
2017-07-23T17:38:58.950Z,31.70
2017-07-23T17:41:24.878Z,31.70
2017-07-23T17:43:50.778Z,30.80
2017-07-23T17:46:17.443Z,29.60
2017-07-23T17:48:43.401Z,29.60
2017-07-23T17:51:09.351Z,29.00
2017-07-23T17:53:38.674Z,28.80
2017-07-23T17:56:04.689Z,28.40
2017-07-23T17:58:34.392Z,28.30
2017-07-23T18:01:00.352Z,28.20
2017-07-23T18:03:28.014Z,28.50
2017-07-23T18:05:55.796Z,28.80
2017-07-23T18:08:25.596Z,28.80
2017-07-23T18:10:54.290Z,29.20
2017-07-23T18:13:24.185Z,29.30
2017-07-23T18:15:57.430Z,29.30
2017-07-23T18:18:28.740Z,29.00
2017-07-23T18:20:54.677Z,28.50
2017-07-23T18:23:21.330Z,27.80
2017-07-23T18:25:47.237Z,27.80
2017-07-23T18:28:13.192Z,27.30
2017-07-23T18:30:39.871Z,26.50
2017-07-23T18:33:06.026Z,26.50
2017-07-23T18:35:32.969Z,26.40
2017-07-23T18:37:58.893Z,26.00
2017-07-23T18:40:24.832Z,25.80
2017-07-23T18:42:50.753Z,25.40
2017-07-23T18:45:16.753Z,25.30
2017-07-23T18:47:42.714Z,25.00
2017-07-23T18:50:08.629Z,25.10
2017-07-23T18:52:41.886Z,25.00
2017-07-23T18:55:15.326Z,25.10
2017-07-23T18:57:41.246Z,25.10
2017-07-23T19:00:08.710Z,25.00
2017-07-23T19:02:45.565Z,24.90
2017-07-23T19:05:14.935Z,24.70
2017-07-23T19:07:41.599Z,24.30
2017-07-23T19:10:10.565Z,24.30
2017-07-23T19:12:36.587Z,24.30
2017-07-23T19:15:02.526Z,24.10
2017-07-23T19:17:28.541Z,23.90
2017-07-23T19:19:54.604Z,23.60
2017-07-23T19:22:23.258Z,23.40
2017-07-23T19:24:49.285Z,23.40
2017-07-23T19:27:15.214Z,23.50
2017-07-23T19:29:48.021Z,23.60
2017-07-23T19:32:21.438Z,23.50
2017-07-23T19:34:49.218Z,23.20
2017-07-23T19:37:15.246Z,23.10
2017-07-23T19:39:42.253Z,22.90
2017-07-23T19:42:08.276Z,22.70
2017-07-23T19:44:37.805Z,22.70
2017-07-23T19:47:03.813Z,22.70
2017-07-23T19:49:35.505Z,22.50
2017-07-23T19:52:07.794Z,22.40
2017-07-23T19:54:36.947Z,22.30
2017-07-23T19:57:09.286Z,22.20
2017-07-23T19:59:47.563Z,22.20
2017-07-23T20:02:18.928Z,22.10
2017-07-23T20:05:00.329Z,21.80
2017-07-23T20:07:26.329Z,21.70
2017-07-23T20:09:52.322Z,21.80
2017-07-23T20:12:22.126Z,21.90
2017-07-23T20:14:58.465Z,21.90
2017-07-23T20:17:24.418Z,21.70
2017-07-23T20:19:50.354Z,21.70
2017-07-23T20:22:17.297Z,21.80
2017-07-23T20:24:43.373Z,21.70
2017-07-23T20:27:14.007Z,21.90
2017-07-23T20:29:53.254Z,21.90
2017-07-23T20:32:22.817Z,21.80
2017-07-23T20:34:55.228Z,21.40
2017-07-23T20:37:22.239Z,21.20
2017-07-23T20:39:48.266Z,21.10
2017-07-23T20:42:16.297Z,21.30
2017-07-23T20:44:47.109Z,21.10
2017-07-23T20:47:16.377Z,21.10
2017-07-23T20:49:43.976Z,21.10
2017-07-23T20:52:18.207Z,21.40
2017-07-23T20:54:45.285Z,21.40
2017-07-23T20:57:14.833Z,21.30
2017-07-23T20:59:40.920Z,21.30
2017-07-23T21:02:06.905Z,21.20
2017-07-23T21:04:39.825Z,20.90
2017-07-23T21:07:07.887Z,20.90
2017-07-23T21:09:37.505Z,20.70
2017-07-23T21:12:03.767Z,20.80
2017-07-23T21:14:29.750Z,20.50
2017-07-23T21:16:56.726Z,20.50
2017-07-23T21:19:22.750Z,20.80
2017-07-23T21:21:49.770Z,21.00
2017-07-23T21:24:16.750Z,20.90
2017-07-23T21:26:46.534Z,20.80
2017-07-23T21:29:15.224Z,20.90
2017-07-23T21:31:45.139Z,20.80
2017-07-23T21:34:17.665Z,21.10
2017-07-23T21:36:43.577Z,21.20
2017-07-23T21:39:13.332Z,21.40
2017-07-23T21:41:39.289Z,21.30
2017-07-23T21:44:06.057Z,20.90
2017-07-23T21:46:32.005Z,20.90
2017-07-23T21:48:57.952Z,21.10
2017-07-23T21:51:23.938Z,21.10
2017-07-23T21:53:49.966Z,20.80
2017-07-23T21:56:15.993Z,20.50
2017-07-23T21:58:42.735Z,20.60
2017-07-23T22:01:09.466Z,20.70
2017-07-23T22:03:35.396Z,20.70
2017-07-23T22:06:02.061Z,21.00
2017-07-23T22:08:28.797Z,21.10
2017-07-23T22:10:54.751Z,21.10
2017-07-23T22:13:20.689Z,21.30
2017-07-23T22:15:46.625Z,21.30
2017-07-23T22:18:12.593Z,21.30
2017-07-23T22:20:38.520Z,21.30
2017-07-23T22:23:05.209Z,21.30
2017-07-23T22:25:31.129Z,21.30
2017-07-23T22:27:57.053Z,21.40
2017-07-23T22:30:22.978Z,21.30
2017-07-23T22:32:48.900Z,21.20
2017-07-23T22:35:14.842Z,20.90
2017-07-23T22:37:40.810Z,21.10
2017-07-23T22:40:06.751Z,21.20
2017-07-23T22:42:32.665Z,21.10
2017-07-23T22:44:58.576Z,21.20
2017-07-23T22:47:24.531Z,21.30
2017-07-23T22:49:50.485Z,21.50
2017-07-23T22:52:17.141Z,21.20
2017-07-23T22:54:43.093Z,21.20
2017-07-23T22:57:09.057Z,21.40
2017-07-23T22:59:34.989Z,21.50
2017-07-23T23:02:00.928Z,21.50
2017-07-23T23:04:27.653Z,21.40
2017-07-23T23:06:53.609Z,21.30
2017-07-23T23:09:19.529Z,21.30
2017-07-23T23:11:46.201Z,21.40
2017-07-23T23:14:12.145Z,21.40
2017-07-23T23:16:38.060Z,21.50
2017-07-23T23:19:03.993Z,21.50
2017-07-23T23:21:29.922Z,21.50
2017-07-23T23:23:55.846Z,21.50
2017-07-23T23:26:21.761Z,21.50
2017-07-23T23:28:47.719Z,21.20
2017-07-23T23:31:13.669Z,21.10
2017-07-23T23:33:39.636Z,20.90
2017-07-23T23:36:06.290Z,21.00
2017-07-23T23:38:32.233Z,21.00
2017-07-23T23:40:58.169Z,21.10
2017-07-23T23:43:24.098Z,21.10
2017-07-23T23:45:50.032Z,21.00
2017-07-23T23:48:15.945Z,21.00
2017-07-23T23:50:43.968Z,20.90
2017-07-23T23:53:10.630Z,20.70
2017-07-23T23:55:37.285Z,20.60
2017-07-23T23:58:03.315Z,20.60
